Time;durP1;ratioP1;P1;durP2;ratioP2;P2;SDS_P1;SDS_P2;PMS_P1;PMS_P2;Temp;Humidity;BMP_temperature;BMP_pressure;BME280_temperature;BME280_humidity;BME280_pressure;Samples;Min_cycle;Max_cycle;Signal;HPM_P1;HPM_P2
2021/12/10 00:01:41;;;;;;;70.63;31.33;;;1.20;99.90;;;;;;5006005;28;20099;-53
2021/12/10 00:04:09;;;;;;;65.18;32.65;;;1.20;99.90;;;;;;5006907;28;20206;-52
2021/12/10 00:06:42;;;;;;;73.82;32.90;;;1.20;99.90;;;;;;5013736;28;20511;-54
2021/12/10 00:09:30;;;;;;;61.92;30.58;;;1.30;99.90;;;;;;5001483;28;20017;-54
2021/12/10 00:12:18;;;;;;;68.38;31.55;;;1.20;99.90;;;;;;5023417;28;20516;-51
2021/12/10 00:14:45;;;;;;;67.55;33.25;;;1.20;99.90;;;;;;5015640;28;20423;-53
2021/12/10 00:17:12;;;;;;;64.15;31.10;;;1.20;99.90;;;;;;5029194;28;20104;-52
2021/12/10 00:19:45;;;;;;;67.20;31.17;;;1.20;99.90;;;;;;5009871;28;20064;-52
2021/12/10 00:22:36;;;;;;;68.07;31.40;;;1.20;99.90;;;;;;5027795;28;20037;-55
2021/12/10 00:25:05;;;;;;;68.05;32.08;;;1.20;99.90;;;;;;5022508;28;20033;-53
2021/12/10 00:27:32;;;;;;;66.13;31.10;;;1.20;99.90;;;;;;5023957;28;20029;-51
2021/12/10 00:30:06;;;;;;;61.63;30.30;;;1.20;99.90;;;;;;5011895;28;20034;-50
2021/12/10 00:32:38;;;;;;;66.72;31.35;;;1.20;99.90;;;;;;5009055;28;20045;-54
2021/12/10 00:35:10;;;;;;;58.22;29.02;;;1.20;99.90;;;;;;5007133;28;20105;-51
2021/12/10 00:37:36;;;;;;;61.55;30.25;;;1.20;99.90;;;;;;5022397;28;20091;-54
2021/12/10 00:40:05;;;;;;;66.03;30.95;;;1.20;99.90;;;;;;5026522;28;20038;-53
2021/12/10 00:42:33;;;;;;;67.57;32.08;;;1.20;99.90;;;;;;5027403;28;20037;-54
2021/12/10 00:45:00;;;;;;;68.95;31.38;;;1.20;99.90;;;;;;5026465;28;20033;-55
2021/12/10 00:47:26;;;;;;;65.22;30.23;;;1.20;99.90;;;;;;5009541;28;20447;-55
2021/12/10 00:49:53;;;;;;;63.50;32.50;;;1.20;99.90;;;;;;5024446;28;20143;-53
2021/12/10 00:52:18;;;;;;;64.72;30.35;;;1.20;99.90;;;;;;5014109;28;20033;-53
2021/12/10 00:54:45;;;;;;;69.07;31.80;;;1.20;99.90;;;;;;5007925;28;20076;-53
2021/12/10 00:57:12;;;;;;;67.97;32.63;;;1.20;99.90;;;;;;5008093;28;20021;-51
2021/12/10 00:59:39;;;;;;;65.57;31.73;;;1.20;99.90;;;;;;5010220;28;20526;-52
2021/12/10 01:02:07;;;;;;;60.33;30.65;;;1.20;99.90;;;;;;5025819;28;20091;-53
2021/12/10 01:04:35;;;;;;;62.30;32.67;;;1.20;99.90;;;;;;5009219;28;20042;-53
2021/12/10 01:07:06;;;;;;;66.82;30.95;;;1.20;99.90;;;;;;5009130;28;20100;-52
2021/12/10 01:09:35;;;;;;;60.45;30.83;;;1.20;99.90;;;;;;5010919;28;20042;-52
2021/12/10 01:12:17;;;;;;;60.00;30.08;;;1.20;99.90;;;;;;5017566;28;20026;-54
2021/12/10 01:26:08;;;;;;;58.47;29.33;;;1.20;99.90;;;;;;5026414;28;20188;-55
2021/12/10 01:28:36;;;;;;;57.92;29.83;;;1.20;99.90;;;;;;5027101;28;20530;-55
2021/12/10 01:31:02;;;;;;;63.03;31.20;;;1.20;99.90;;;;;;5027786;28;20056;-53
2021/12/10 01:33:28;;;;;;;63.75;30.90;;;1.20;99.90;;;;;;5027045;28;20105;-54
2021/12/10 01:35:56;;;;;;;62.85;31.10;;;1.20;99.90;;;;;;5020219;28;20160;-53
2021/12/10 01:38:23;;;;;;;63.92;30.52;;;1.20;99.90;;;;;;5007967;28;20498;-54
2021/12/10 01:40:55;;;;;;;64.07;29.88;;;1.20;99.90;;;;;;5007930;28;20037;-55
2021/12/10 01:43:38;;;;;;;62.90;30.88;;;1.20;99.90;;;;;;5008828;28;20112;-52
2021/12/10 01:46:11;;;;;;;55.67;29.20;;;1.20;99.90;;;;;;5020480;28;20030;-53
2021/12/10 01:48:47;;;;;;;65.45;29.88;;;1.20;99.90;;;;;;5014138;28;20032;-51
2021/12/10 01:51:19;;;;;;;63.20;29.73;;;1.20;99.90;;;;;;5009182;28;20028;-53
2021/12/10 01:53:48;;;;;;;65.85;29.88;;;1.20;99.90;;;;;;5007840;28;20046;-54
2021/12/10 01:56:20;;;;;;;61.78;29.00;;;1.20;99.90;;;;;;5007950;28;20026;-55
2021/12/10 01:58:47;;;;;;;65.43;31.33;;;1.20;99.90;;;;;;5004683;28;20404;-56
2021/12/10 02:01:20;;;;;;;62.05;30.05;;;1.20;99.90;;;;;;5005840;28;20107;-52
2021/12/10 02:03:49;;;;;;;63.00;31.83;;;1.20;99.90;;;;;;5015958;28;20069;-55
2021/12/10 02:06:15;;;;;;;62.58;29.70;;;1.20;99.90;;;;;;5020985;28;20439;-54
2021/12/10 02:08:42;;;;;;;60.72;30.08;;;1.20;99.90;;;;;;5008508;28;20026;-52
2021/12/10 02:11:09;;;;;;;57.47;28.88;;;1.20;99.90;;;;;;5023560;28;20104;-52
2021/12/10 02:13:35;;;;;;;58.63;30.42;;;1.20;99.90;;;;;;5012295;28;20121;-53
2021/12/10 02:16:01;;;;;;;59.58;29.83;;;1.20;99.90;;;;;;5011448;28;20064;-55
2021/12/10 02:18:27;;;;;;;63.50;31.40;;;1.20;99.90;;;;;;5026347;28;20056;-55
2021/12/10 02:21:01;;;;;;;61.95;28.77;;;1.20;99.90;;;;;;5031008;28;20106;-53
2021/12/10 02:23:34;;;;;;;53.60;28.83;;;1.20;99.90;;;;;;5017855;28;20516;-52
2021/12/10 02:26:02;;;;;;;57.85;29.45;;;1.10;99.90;;;;;;4995456;28;20046;-53
2021/12/10 02:28:28;;;;;;;60.53;30.38;;;1.10;99.90;;;;;;5018056;28;20041;-52
2021/12/10 02:30:54;;;;;;;58.42;29.17;;;1.10;99.90;;;;;;5024710;28;20040;-50
2021/12/10 02:33:20;;;;;;;59.45;28.73;;;1.10;99.90;;;;;;5010972;28;20076;-52
2021/12/10 02:35:46;;;;;;;57.28;30.10;;;1.10;99.90;;;;;;5011123;28;20794;-51
2021/12/10 02:38:15;;;;;;;56.17;29.20;;;1.10;99.90;;;;;;5020327;28;20037;-52
2021/12/10 02:40:40;;;;;;;60.30;28.83;;;1.10;99.90;;;;;;5014824;28;20030;-53
2021/12/10 02:43:10;;;;;;;63.17;29.55;;;1.20;99.90;;;;;;5019421;28;20032;-55
2021/12/10 02:45:37;;;;;;;53.85;26.75;;;1.20;99.90;;;;;;5029715;28;20025;-54
2021/12/10 02:48:04;;;;;;;57.78;28.92;;;1.10;99.90;;;;;;5029706;28;20060;-56
2021/12/10 02:50:31;;;;;;;53.63;27.95;;;1.20;99.90;;;;;;5026717;28;20147;-53
2021/12/10 02:52:57;;;;;;;63.28;30.15;;;1.10;99.90;;;;;;5010478;28;20030;-52
2021/12/10 02:55:23;;;;;;;59.95;28.95;;;1.10;99.90;;;;;;5010115;28;20033;-53
2021/12/10 02:57:54;;;;;;;63.63;28.25;;;1.20;99.90;;;;;;5010197;28;20055;-54
2021/12/10 03:00:25;;;;;;;57.53;27.50;;;1.20;99.90;;;;;;5010120;28;20101;-52
2021/12/10 03:02:50;;;;;;;57.40;28.67;;;1.20;99.90;;;;;;5010221;28;20034;-51
2021/12/10 03:05:16;;;;;;;59.67;29.45;;;1.20;99.90;;;;;;5009123;28;20436;-55
2021/12/10 03:07:42;;;;;;;54.17;30.40;;;1.20;99.90;;;;;;5009262;28;20065;-55
2021/12/10 03:10:11;;;;;;;50.35;28.13;;;1.20;99.90;;;;;;4998892;28;20045;-55
2021/12/10 03:12:37;;;;;;;54.28;28.85;;;1.20;99.90;;;;;;4991422;28;20374;-54
2021/12/10 03:15:05;;;;;;;58.22;29.65;;;1.20;99.90;;;;;;5009812;28;20022;-52
2021/12/10 03:17:31;;;;;;;59.85;28.77;;;1.20;99.90;;;;;;5007794;28;20066;-55
2021/12/10 03:19:58;;;;;;;60.28;29.83;;;1.20;99.90;;;;;;5009599;28;20065;-53
2021/12/10 03:22:24;;;;;;;60.17;28.27;;;1.20;99.90;;;;;;5004877;28;20053;-54
2021/12/10 03:24:53;;;;;;;61.60;28.45;;;1.20;99.90;;;;;;4992721;28;20108;-55
2021/12/10 03:27:21;;;;;;;53.15;29.30;;;1.20;99.90;;;;;;5008633;28;20033;-51
2021/12/10 03:29:49;;;;;;;62.15;29.58;;;1.20;99.90;;;;;;4994825;28;20034;-54
2021/12/10 03:32:20;;;;;;;61.38;29.50;;;1.20;99.90;;;;;;5009065;28;20054;-54
2021/12/10 03:34:46;;;;;;;52.63;28.02;;;1.20;99.90;;;;;;5008314;28;20061;-54
2021/12/10 03:37:13;;;;;;;58.38;27.80;;;1.20;99.90;;;;;;5006100;28;20319;-52
2021/12/10 03:39:38;;;;;;;57.50;28.58;;;1.20;99.90;;;;;;4990129;28;20033;-55
2021/12/10 03:42:07;;;;;;;59.10;27.95;;;1.20;99.90;;;;;;4990444;28;20042;-52
2021/12/10 03:44:33;;;;;;;60.95;29.90;;;1.20;99.90;;;;;;4996133;28;20026;-55
2021/12/10 03:47:00;;;;;;;53.92;27.90;;;1.20;99.90;;;;;;5025449;28;20523;-54
2021/12/10 03:49:26;;;;;;;53.55;26.80;;;1.20;99.90;;;;;;5028887;28;20361;-51
2021/12/10 03:51:51;;;;;;;59.47;29.27;;;1.20;99.90;;;;;;5028718;28;20091;-55
2021/12/10 03:54:17;;;;;;;59.75;27.52;;;1.20;99.90;;;;;;5027944;28;20037;-54
2021/12/10 03:56:47;;;;;;;53.42;27.63;;;1.20;99.90;;;;;;5014735;28;20021;-55
2021/12/10 03:59:15;;;;;;;55.30;27.40;;;1.20;99.90;;;;;;5009131;28;20512;-51
2021/12/10 04:01:45;;;;;;;60.53;28.10;;;1.20;99.90;;;;;;5008825;28;20037;-52
2021/12/10 04:04:18;;;;;;;58.60;29.58;;;1.20;99.90;;;;;;5020992;28;20025;-51
2021/12/10 04:06:45;;;;;;;62.40;27.50;;;1.20;99.90;;;;;;5014422;28;20033;-53
2021/12/10 04:09:12;;;;;;;47.78;27.67;;;1.20;99.90;;;;;;5026225;28;20046;-52
2021/12/10 04:11:38;;;;;;;56.63;27.25;;;1.20;99.90;;;;;;5022378;28;20037;-51
2021/12/10 04:14:05;;;;;;;56.45;27.05;;;1.20;99.90;;;;;;5009801;28;20045;-52
2021/12/10 04:16:32;;;;;;;53.20;26.38;;;1.20;99.90;;;;;;5021113;28;20080;-55
2021/12/10 04:19:00;;;;;;;57.80;28.38;;;1.20;99.90;;;;;;5012319;28;20030;-51
2021/12/10 04:21:27;;;;;;;53.47;26.95;;;1.20;99.90;;;;;;5010465;28;20057;-55
2021/12/10 04:23:53;;;;;;;50.78;27.05;;;1.20;99.90;;;;;;5007185;28;20045;-55
2021/12/10 04:26:21;;;;;;;55.78;28.85;;;1.20;99.90;;;;;;5017195;28;20037;-52
2021/12/10 04:28:47;;;;;;;53.30;25.17;;;1.20;99.90;;;;;;5028331;28;20037;-52
2021/12/10 04:31:14;;;;;;;59.47;26.95;;;1.20;99.90;;;;;;5013558;28;20092;-52
2021/12/10 04:33:39;;;;;;;54.65;27.52;;;1.20;99.90;;;;;;5009169;28;20369;-56
2021/12/10 04:36:07;;;;;;;52.20;26.70;;;1.20;99.90;;;;;;5007472;28;20038;-56
2021/12/10 04:38:35;;;;;;;58.30;27.67;;;1.20;99.90;;;;;;5008168;28;20481;-52
2021/12/10 04:41:04;;;;;;;54.47;26.10;;;1.20;99.90;;;;;;5008574;28;20034;-53
2021/12/10 04:43:31;;;;;;;54.05;26.10;;;1.20;99.90;;;;;;5008842;28;20531;-53
2021/12/10 04:45:58;;;;;;;49.67;25.38;;;1.20;99.90;;;;;;5014547;28;20037;-52
2021/12/10 04:48:25;;;;;;;52.22;25.75;;;1.20;99.90;;;;;;5028434;28;20036;-53
2021/12/10 04:50:52;;;;;;;51.85;24.92;;;1.10;99.90;;;;;;5027694;28;20427;-51
2021/12/10 04:53:18;;;;;;;46.55;24.98;;;1.10;99.90;;;;;;5025035;28;20072;-54
2021/12/10 04:55:44;;;;;;;55.10;26.40;;;1.10;99.90;;;;;;5020254;28;20045;-51
2021/12/10 04:58:11;;;;;;;53.55;27.55;;;1.10;99.90;;;;;;5027631;28;20061;-54
2021/12/10 05:00:44;;;;;;;50.63;26.73;;;1.10;99.90;;;;;;5027866;28;20041;-54
2021/12/10 05:03:11;;;;;;;53.97;25.80;;;1.10;99.90;;;;;;5015954;28;20489;-51
2021/12/10 05:05:38;;;;;;;49.78;25.77;;;1.10;99.90;;;;;;5011628;28;20055;-52
2021/12/10 05:08:04;;;;;;;55.88;26.67;;;1.20;99.90;;;;;;5017628;28;20073;-52
2021/12/10 05:10:30;;;;;;;48.67;24.73;;;1.10;99.90;;;;;;5008563;28;20038;-53
2021/12/10 05:12:56;;;;;;;53.70;26.75;;;1.10;99.90;;;;;;5009943;28;20026;-54
2021/12/10 05:15:24;;;;;;;49.20;24.40;;;1.20;99.90;;;;;;5008370;28;20026;-55
2021/12/10 05:17:51;;;;;;;56.65;25.85;;;1.20;99.90;;;;;;5028086;28;20033;-52
2021/12/10 05:20:22;;;;;;;46.78;26.00;;;1.10;99.90;;;;;;5028134;28;20033;-54
2021/12/10 05:22:49;;;;;;;53.70;26.10;;;1.10;99.90;;;;;;5027207;28;20167;-54
2021/12/10 05:25:15;;;;;;;49.83;26.25;;;1.10;99.90;;;;;;5017417;28;20113;-52
2021/12/10 05:27:44;;;;;;;45.72;24.02;;;1.10;99.90;;;;;;5026799;28;20041;-53
2021/12/10 05:30:12;;;;;;;53.22;25.75;;;1.10;99.90;;;;;;5027881;28;20030;-51
2021/12/10 05:32:38;;;;;;;47.92;23.95;;;1.10;99.90;;;;;;5027482;28;20087;-53
2021/12/10 05:35:05;;;;;;;53.20;24.63;;;1.10;99.90;;;;;;5027549;28;20486;-51
2021/12/10 05:37:31;;;;;;;47.88;24.02;;;1.10;99.90;;;;;;5009920;28;20109;-51
2021/12/10 05:39:56;;;;;;;51.72;23.98;;;1.10;99.90;;;;;;5015922;28;20429;-50
2021/12/10 05:42:22;;;;;;;51.30;24.88;;;1.10;99.90;;;;;;5026122;28;20430;-50
2021/12/10 05:44:48;;;;;;;50.83;25.02;;;1.10;99.90;;;;;;5021192;28;20025;-52
2021/12/10 05:47:13;;;;;;;53.00;24.55;;;1.10;99.90;;;;;;5022462;28;20043;-51
2021/12/10 05:49:40;;;;;;;46.15;24.27;;;1.10;99.90;;;;;;5029661;28;20107;-52
2021/12/10 05:52:07;;;;;;;55.95;25.58;;;1.10;99.90;;;;;;5029417;28;20083;-52
2021/12/10 05:54:33;;;;;;;44.45;24.17;;;1.10;99.90;;;;;;5029435;28;20038;-53
2021/12/10 05:56:59;;;;;;;51.25;26.33;;;1.10;99.90;;;;;;5018485;28;20030;-51
2021/12/10 05:59:25;;;;;;;55.25;26.27;;;1.10;99.90;;;;;;5009829;28;20560;-52
2021/12/10 06:01:50;;;;;;;49.42;24.25;;;1.10;99.90;;;;;;5011777;28;20108;-52
2021/12/10 06:04:22;;;;;;;44.03;23.38;;;1.10;99.90;;;;;;5026608;28;20037;-51
2021/12/10 06:06:47;;;;;;;49.00;25.13;;;1.10;99.90;;;;;;5028796;28;20072;-53
2021/12/10 06:09:13;;;;;;;44.05;22.13;;;1.10;99.90;;;;;;5030130;28;20488;-53
2021/12/10 06:11:39;;;;;;;48.17;24.52;;;1.10;99.90;;;;;;5029204;28;20044;-51
2021/12/10 06:14:06;;;;;;;49.33;24.48;;;1.10;99.90;;;;;;5030697;28;20041;-53
2021/12/10 06:16:32;;;;;;;46.33;23.85;;;1.00;99.90;;;;;;5022373;28;20038;-52
2021/12/10 06:18:58;;;;;;;48.95;24.05;;;1.00;99.90;;;;;;5011327;28;20084;-50
2021/12/10 06:21:24;;;;;;;51.13;24.98;;;1.00;99.90;;;;;;5011574;28;20111;-51
2021/12/10 06:23:49;;;;;;;47.95;23.80;;;1.00;99.90;;;;;;5012211;28;20060;-52
2021/12/10 06:26:15;;;;;;;50.42;24.17;;;1.00;99.90;;;;;;5022317;28;20036;-52
2021/12/10 06:28:45;;;;;;;44.03;23.65;;;0.90;99.90;;;;;;5020369;28;20037;-52
2021/12/10 06:31:16;;;;;;;50.38;23.55;;;0.90;99.90;;;;;;5024968;28;20084;-52
2021/12/10 06:33:43;;;;;;;47.10;23.08;;;0.90;99.90;;;;;;5012456;28;20164;-52
2021/12/10 06:36:09;;;;;;;39.72;22.70;;;0.80;99.90;;;;;;5015976;28;20531;-51
2021/12/10 06:38:35;;;;;;;45.40;23.92;;;0.80;99.90;;;;;;5030523;28;20030;-51
2021/12/10 06:41:02;;;;;;;44.17;23.48;;;0.80;99.90;;;;;;5030444;28;20078;-50
2021/12/10 06:43:28;;;;;;;47.00;23.50;;;0.70;99.90;;;;;;5028731;28;20033;-51
2021/12/10 06:45:53;;;;;;;48.78;24.33;;;0.70;99.90;;;;;;5028449;28;20416;-51
2021/12/10 06:48:23;;;;;;;44.67;22.50;;;0.70;99.90;;;;;;5013203;28;20124;-50
2021/12/10 06:51:06;;;;;;;46.88;23.83;;;0.60;99.90;;;;;;5029749;28;20429;-50
2021/12/10 06:53:31;;;;;;;51.65;25.05;;;0.60;99.90;;;;;;5029962;28;20030;-53
2021/12/10 06:55:59;;;;;;;46.40;23.00;;;0.60;99.90;;;;;;5015621;28;20057;-49
2021/12/10 06:58:27;;;;;;;51.38;24.00;;;0.60;99.90;;;;;;5008613;28;20026;-52
2021/12/10 07:00:57;;;;;;;49.67;24.92;;;0.60;99.90;;;;;;5028662;28;20038;-51
2021/12/10 07:03:28;;;;;;;47.78;23.27;;;0.50;99.90;;;;;;5028149;28;20708;-52
2021/12/10 07:05:56;;;;;;;50.63;24.23;;;0.60;99.90;;;;;;5011559;28;20034;-54
2021/12/10 07:08:24;;;;;;;49.85;26.25;;;0.50;99.90;;;;;;5016395;28;20056;-52
2021/12/10 07:10:50;;;;;;;47.65;24.10;;;0.50;99.90;;;;;;5010202;28;20563;-53
2021/12/10 07:13:17;;;;;;;48.10;23.70;;;0.50;99.90;;;;;;5015699;28;20025;-54
2021/12/10 07:15:45;;;;;;;50.22;23.77;;;0.60;99.90;;;;;;5030064;28;20503;-52
2021/12/10 07:18:11;;;;;;;56.00;24.63;;;0.50;99.90;;;;;;5018957;28;20037;-51
2021/12/10 07:20:38;;;;;;;55.60;26.90;;;0.50;99.90;;;;;;5011852;28;20045;-55
2021/12/10 07:23:03;;;;;;;48.25;23.40;;;0.60;99.90;;;;;;5010279;28;20535;-51
2021/12/10 07:25:29;;;;;;;50.47;24.88;;;0.60;99.90;;;;;;5010076;28;20038;-50
2021/12/10 07:27:55;;;;;;;55.78;25.75;;;0.50;99.90;;;;;;5009222;28;20050;-51
2021/12/10 07:30:23;;;;;;;45.50;23.70;;;0.50;99.90;;;;;;5022655;28;20090;-50
2021/12/10 07:32:49;;;;;;;53.60;25.08;;;0.60;99.90;;;;;;5029286;28;20531;-50
2021/12/10 07:35:16;;;;;;;46.03;23.33;;;0.60;99.90;;;;;;5029077;28;20033;-54
2021/12/10 07:37:42;;;;;;;54.67;24.55;;;0.60;99.90;;;;;;5028682;28;20385;-51
2021/12/10 07:40:12;;;;;;;49.88;23.73;;;0.60;99.90;;;;;;5015955;28;20064;-51
2021/12/10 07:42:38;;;;;;;48.90;24.67;;;0.60;99.90;;;;;;5011064;28;20110;-51
2021/12/10 07:45:06;;;;;;;50.10;24.88;;;0.60;99.90;;;;;;5009257;28;20030;-51
2021/12/10 07:47:35;;;;;;;48.15;24.13;;;0.60;99.90;;;;;;5009451;28;20046;-51
2021/12/10 07:50:01;;;;;;;49.88;24.77;;;0.70;99.90;;;;;;5020990;28;20030;-49
2021/12/10 07:52:28;;;;;;;52.20;24.77;;;0.70;99.90;;;;;;5028047;28;20025;-51
2021/12/10 07:54:54;;;;;;;49.22;24.42;;;0.70;99.90;;;;;;5019898;28;20049;-51
2021/12/10 07:57:24;;;;;;;50.95;25.45;;;0.70;99.90;;;;;;5022768;28;20515;-50
2021/12/10 07:59:49;;;;;;;58.03;24.92;;;0.70;99.90;;;;;;5010745;28;20064;-50
2021/12/10 08:02:16;;;;;;;55.45;26.67;;;0.70;99.90;;;;;;5009298;28;20026;-53
2021/12/10 08:04:42;;;;;;;50.83;24.05;;;0.70;99.90;;;;;;5009482;28;20022;-50
2021/12/10 08:07:10;;;;;;;48.03;24.58;;;0.70;99.90;;;;;;5018796;28;20026;-51
2021/12/10 08:09:35;;;;;;;53.53;25.08;;;0.70;99.90;;;;;;5028611;28;20084;-51
2021/12/10 08:12:01;;;;;;;54.40;24.48;;;0.70;99.90;;;;;;5027755;28;20026;-52
2021/12/10 08:14:27;;;;;;;54.65;25.85;;;0.80;99.90;;;;;;5027069;28;20029;-52
2021/12/10 08:16:52;;;;;;;59.47;25.67;;;0.70;99.90;;;;;;5028908;28;20021;-51
2021/12/10 08:19:18;;;;;;;49.65;25.50;;;0.80;99.90;;;;;;5028324;28;20021;-51
2021/12/10 08:21:44;;;;;;;55.45;26.85;;;0.80;99.90;;;;;;5028353;28;20034;-51
2021/12/10 08:24:10;;;;;;;58.05;25.70;;;0.80;99.90;;;;;;5014456;28;20523;-51
2021/12/10 08:26:37;;;;;;;51.60;25.42;;;0.80;99.90;;;;;;5027421;28;20427;-50
2021/12/10 08:29:05;;;;;;;58.05;27.00;;;0.80;99.90;;;;;;5028354;28;20125;-52
2021/12/10 08:31:31;;;;;;;49.90;25.85;;;0.80;99.90;;;;;;5028921;28;20032;-51
2021/12/10 08:33:56;;;;;;;49.92;25.80;;;0.80;99.90;;;;;;5027998;28;20227;-51
2021/12/10 08:36:23;;;;;;;50.95;25.50;;;0.80;99.90;;;;;;5025409;28;20052;-50
2021/12/10 08:38:49;;;;;;;58.67;27.70;;;0.90;99.90;;;;;;5028522;28;20053;-52
2021/12/10 08:41:19;;;;;;;64.18;27.00;;;0.90;99.90;;;;;;5028622;28;20026;-53
2021/12/10 08:43:45;;;;;;;53.80;26.30;;;0.90;99.90;;;;;;5028444;28;20037;-50
2021/12/10 08:46:12;;;;;;;54.25;24.30;;;0.90;99.90;;;;;;5028495;28;20069;-51
2021/12/10 08:48:39;;;;;;;49.17;23.42;;;0.80;99.90;;;;;;5026783;28;20484;-51
2021/12/10 08:51:10;;;;;;;52.42;24.58;;;0.90;99.90;;;;;;5028170;28;20036;-51
2021/12/10 08:53:36;;;;;;;54.60;26.23;;;0.90;99.90;;;;;;5027919;28;20480;-54
2021/12/10 08:56:03;;;;;;;54.55;25.63;;;0.90;99.90;;;;;;5027009;28;20048;-51
2021/12/10 08:58:29;;;;;;;50.95;25.05;;;0.90;99.90;;;;;;5026869;28;20025;-50
2021/12/10 09:01:11;;;;;;;54.47;25.38;;;1.00;99.90;;;;;;5023832;28;20060;-53
2021/12/10 09:03:37;;;;;;;54.40;25.02;;;1.00;99.90;;;;;;5047132;23;20127;-51
2021/12/10 09:06:05;;;;;;;52.17;25.15;;;1.00;99.90;;;;;;5013440;28;20476;-51
2021/12/10 09:08:31;;;;;;;58.00;27.73;;;1.00;99.90;;;;;;5008347;28;20104;-53
2021/12/10 09:10:57;;;;;;;58.78;25.65;;;1.00;99.90;;;;;;5008322;28;20121;-56
2021/12/10 09:13:24;;;;;;;56.67;25.58;;;1.00;99.90;;;;;;5027670;28;20028;-55
2021/12/10 09:15:56;;;;;;;53.45;24.38;;;1.00;99.90;;;;;;5026445;28;20071;-54
2021/12/10 09:18:23;;;;;;;53.08;24.55;;;1.00;99.90;;;;;;5026493;28;20021;-52
2021/12/10 09:20:52;;;;;;;47.55;22.95;;;1.10;99.90;;;;;;5009092;28;20037;-51
2021/12/10 09:23:22;;;;;;;52.95;24.65;;;1.10;99.90;;;;;;5009413;28;20030;-52
2021/12/10 09:25:50;;;;;;;49.35;24.80;;;1.10;99.90;;;;;;5018134;28;20181;-57
2021/12/10 09:28:16;;;;;;;47.58;24.67;;;1.10;99.90;;;;;;5011921;28;20030;-55
2021/12/10 09:30:46;;;;;;;47.42;22.92;;;1.10;99.90;;;;;;5012748;28;20021;-53
2021/12/10 09:33:11;;;;;;;48.08;24.08;;;1.20;99.90;;;;;;4992586;28;20182;-53
2021/12/10 09:35:38;;;;;;;51.03;23.73;;;1.20;99.90;;;;;;4992834;28;20109;-49
2021/12/10 09:38:06;;;;;;;41.03;21.80;;;1.20;99.90;;;;;;5011945;28;20022;-55
2021/12/10 09:40:37;;;;;;;45.40;22.10;;;1.30;99.90;;;;;;5012177;28;20403;-59
2021/12/10 09:43:05;;;;;;;47.20;22.55;;;1.30;99.90;;;;;;4992610;28;20065;-54
2021/12/10 09:45:33;;;;;;;48.00;22.63;;;1.30;99.90;;;;;;4990762;28;20032;-51
2021/12/10 09:48:00;;;;;;;44.30;22.05;;;1.30;99.90;;;;;;5031221;28;20055;-53
2021/12/10 09:50:29;;;;;;;41.92;21.30;;;1.40;99.90;;;;;;5031793;28;20029;-53
2021/12/10 09:52:55;;;;;;;42.42;21.60;;;1.40;99.90;;;;;;5012765;28;20053;-54
2021/12/10 09:55:21;;;;;;;46.78;21.58;;;1.40;99.90;;;;;;5012271;28;20160;-54
2021/12/10 09:57:49;;;;;;;40.00;21.35;;;1.40;99.90;;;;;;5029779;28;20239;-52
2021/12/10 10:00:46;;;;;;;45.78;20.85;;;1.50;99.90;;;;;;5031637;28;20029;-55
2021/12/10 10:03:15;;;;;;;40.70;20.83;;;1.50;99.90;;;;;;5006348;28;20546;-54
2021/12/10 10:05:45;;;;;;;40.50;20.88;;;1.60;99.90;;;;;;5031254;28;20072;-53
2021/12/10 10:08:15;;;;;;;35.53;19.02;;;1.60;99.90;;;;;;5029885;28;20029;-55
2021/12/10 10:10:47;;;;;;;38.05;19.20;;;1.60;99.90;;;;;;5029197;28;20120;-53
2021/12/10 10:13:14;;;;;;;36.45;19.60;;;1.60;99.90;;;;;;4990127;28;20182;-55
2021/12/10 10:15:42;;;;;;;38.50;18.95;;;1.60;99.90;;;;;;4993327;28;20026;-53
2021/12/10 10:18:15;;;;;;;37.13;20.27;;;1.70;99.90;;;;;;5010864;28;20030;-55
2021/12/10 10:20:46;;;;;;;36.70;19.20;;;1.70;99.90;;;;;;5011265;28;20058;-56
2021/12/10 10:23:12;;;;;;;35.30;19.20;;;1.80;99.90;;;;;;5010627;28;20041;-54
2021/12/10 10:25:40;;;;;;;36.08;19.65;;;1.80;99.90;;;;;;5026230;28;20500;-51
2021/12/10 10:28:10;;;;;;;36.15;18.25;;;1.80;99.90;;;;;;5010794;28;20034;-53
2021/12/10 10:30:41;;;;;;;36.67;19.65;;;1.80;99.90;;;;;;5009892;28;20117;-52
2021/12/10 10:33:09;;;;;;;36.53;20.40;;;1.80;99.90;;;;;;5009481;28;20026;-57
2021/12/10 10:35:40;;;;;;;43.55;19.92;;;1.80;99.90;;;;;;5010160;28;20049;-55
2021/12/10 10:38:08;;;;;;;34.33;18.35;;;1.90;99.90;;;;;;5010560;28;20029;-51
2021/12/10 10:40:38;;;;;;;34.85;19.58;;;1.90;99.90;;;;;;5018661;28;20037;-57
2021/12/10 10:43:04;;;;;;;38.65;19.75;;;1.90;99.90;;;;;;5030855;28;20491;-57
2021/12/10 10:45:34;;;;;;;37.22;19.33;;;1.90;99.90;;;;;;5030799;28;20250;-55
2021/12/10 10:48:00;;;;;;;31.90;19.45;;;2.00;99.90;;;;;;5031787;28;20316;-52
2021/12/10 10:50:34;;;;;;;35.00;18.00;;;2.00;99.90;;;;;;5020369;28;20113;-54
2021/12/10 10:53:21;;;;;;;39.97;19.85;;;2.00;99.90;;;;;;5022333;28;20033;-54
2021/12/10 10:55:54;;;;;;;35.60;18.77;;;2.00;99.90;;;;;;5021719;28;20076;-51
2021/12/10 10:58:23;;;;;;;37.78;19.55;;;2.10;99.90;;;;;;5030613;28;20375;-54
2021/12/10 11:01:24;;;;;;;37.05;18.90;;;2.10;99.90;;;;;;5029452;28;20029;-51
2021/12/10 11:04:04;;;;;;;37.58;18.90;;;2.10;99.90;;;;;;5030662;28;20033;-57
2021/12/10 11:06:35;;;;;;;34.60;18.10;;;2.10;99.90;;;;;;5030224;28;20116;-49
2021/12/10 11:09:16;;;;;;;37.72;21.63;;;2.10;99.90;;;;;;5030326;28;20026;-48
2021/12/10 11:11:48;;;;;;;35.67;18.15;;;2.20;99.90;;;;;;5030843;28;20034;-51
2021/12/10 11:14:20;;;;;;;39.35;18.67;;;2.20;99.90;;;;;;5028620;28;20506;-49
2021/12/10 11:16:48;;;;;;;30.83;17.35;;;2.20;99.90;;;;;;5026749;28;20026;-50
2021/12/10 11:19:18;;;;;;;34.75;18.38;;;2.20;99.90;;;;;;5017809;28;20037;-57
2021/12/10 11:21:48;;;;;;;36.92;20.08;;;2.30;99.90;;;;;;5029442;28;20380;-53
2021/12/10 11:24:23;;;;;;;41.15;19.17;;;2.30;99.90;;;;;;5029357;28;20060;-51
2021/12/10 11:27:00;;;;;;;38.47;19.48;;;2.30;99.90;;;;;;5016553;28;20038;-49
2021/12/10 11:29:28;;;;;;;35.45;18.52;;;2.30;99.90;;;;;;5005307;28;20040;-52
2021/12/10 11:32:10;;;;;;;38.30;19.33;;;2.20;99.90;;;;;;5010552;28;20117;-50
2021/12/10 11:34:43;;;;;;;32.38;17.83;;;2.30;99.90;;;;;;5020339;28;20030;-49
2021/12/10 11:37:10;;;;;;;40.78;18.40;;;2.30;99.90;;;;;;5030280;28;20411;-53
2021/12/10 11:39:49;;;;;;;34.83;18.40;;;2.30;99.90;;;;;;5018078;28;20089;-49
2021/12/10 11:42:57;;;;;;;33.95;19.05;;;2.30;99.90;;;;;;5010177;28;20034;-55
2021/12/10 11:45:31;;;;;;;36.38;17.73;;;2.30;99.90;;;;;;4931690;29;20034;-51
2021/12/10 11:48:11;;;;;;;32.40;18.20;;;2.30;99.90;;;;;;4983663;28;20390;-53
2021/12/10 11:50:41;;;;;;;39.08;17.33;;;2.30;99.90;;;;;;5008146;28;20397;-50
2021/12/10 11:53:15;;;;;;;36.88;17.90;;;2.40;99.90;;;;;;5008038;28;20492;-49
2021/12/10 11:55:59;;;;;;;33.92;17.35;;;2.40;99.90;;;;;;5008451;28;20030;-49
2021/12/10 11:58:25;;;;;;;32.40;16.90;;;2.40;99.90;;;;;;5010415;28;20145;-48
2021/12/10 12:00:53;;;;;;;30.85;16.95;;;2.40;99.90;;;;;;5029653;28;20599;-53
2021/12/10 12:03:21;;;;;;;30.08;15.98;;;2.40;99.90;;;;;;5026111;28;20044;-53
2021/12/10 12:05:49;;;;;;;33.53;17.83;;;2.40;99.90;;;;;;5009866;28;20026;-51
2021/12/10 12:08:18;;;;;;;32.72;16.58;;;2.40;99.90;;;;;;5009557;28;20030;-51
2021/12/10 12:10:58;;;;;;;30.90;16.45;;;2.40;99.90;;;;;;5009082;28;20022;-48
2021/12/10 12:13:37;;;;;;;27.02;15.50;;;2.50;99.90;;;;;;5029516;28;20032;-53
2021/12/10 12:16:13;;;;;;;29.50;15.07;;;2.50;99.90;;;;;;5024881;28;20025;-54
2021/12/10 12:18:49;;;;;;;;;;;2.50;99.90;;;;;;5021474;28;20036;-52
2021/12/10 12:27:09;;;;;;;28.73;15.25;;;2.60;99.90;;;;;;5028254;28;20132;-51
2021/12/10 12:29:48;;;;;;;26.98;14.15;;;2.60;99.90;;;;;;5027420;28;20040;-54
2021/12/10 12:32:19;;;;;;;27.65;15.45;;;2.60;99.90;;;;;;5027730;28;20037;-50
2021/12/10 12:34:45;;;;;;;30.30;14.57;;;2.60;99.90;;;;;;5027753;28;20025;-54
2021/12/10 12:37:14;;;;;;;26.13;15.50;;;2.60;99.90;;;;;;5008441;28;20026;-54
2021/12/10 12:39:45;;;;;;;30.88;15.80;;;2.60;99.90;;;;;;5007780;28;20022;-50
2021/12/10 12:42:19;;;;;;;28.08;14.88;;;2.60;99.90;;;;;;5008564;28;20022;-48
2021/12/10 12:44:51;;;;;;;28.85;15.65;;;2.60;99.90;;;;;;5008526;28;20374;-49
2021/12/10 12:47:19;;;;;;;27.42;15.63;;;2.60;99.90;;;;;;5009031;28;20022;-50
2021/12/10 12:49:48;;;;;;;30.13;15.25;;;2.60;99.90;;;;;;5008844;28;20053;-48
2021/12/10 12:52:22;;;;;;;29.60;14.40;;;2.60;99.90;;;;;;5007564;28;20032;-54
2021/12/10 12:55:04;;;;;;;27.83;14.15;;;2.60;99.90;;;;;;5008419;28;20032;-50
2021/12/10 12:57:47;;;;;;;27.52;14.73;;;2.60;99.90;;;;;;5008517;28;20026;-51
2021/12/10 13:00:22;;;;;;;26.17;13.85;;;2.60;99.90;;;;;;5008198;28;20108;-50
2021/12/10 13:02:55;;;;;;;31.05;15.75;;;2.60;99.90;;;;;;5008531;28;20253;-50
2021/12/10 13:05:41;;;;;;;32.95;15.60;;;2.60;99.90;;;;;;5008596;28;20022;-48